Lairdsville, New York
Current Conditions -  °F | °C
As of 3:53 AM on Monday 20 Oct 2014 (Local Time) from KRME Reporting Station
Few Clouds Few Clouds  
Wind Chill: 33°   Ceiling: Unl
Heat Index: 33°   Visibility: 10mi
Dew Point: 31°   Wind: 3mph
Humidity: 92%   Direction: 120°ESE
Pressure: 30.03"   Gusts: NA
Location:  43.0443°N, 75.3908°W
Report Text: KRME 200753Z AUTO 12003KT 10SM FEW042 01/M01 A3003 RMK AO2 SLP172 T00061006 TSNO
Loading
Personal Weather Stations






























Interactive Weather Map
Tropical Storm Tracking
New forecast layout! Learn more

10-Day Weather Forecast

Advertisements
Track Severe Weather on mobile